createdAt,value
2018-07-01T00:00:16.264Z,12.50
2018-07-01T00:02:44.656Z,12.50
2018-07-01T00:05:13.121Z,12.40
2018-07-01T00:07:41.588Z,12.40
2018-07-01T00:10:10.643Z,12.50
2018-07-01T00:12:39.259Z,12.50
2018-07-01T00:15:08.332Z,12.60
2018-07-01T00:17:37.042Z,12.60
2018-07-01T00:20:06.587Z,12.50
2018-07-01T00:22:35.235Z,12.30
2018-07-01T00:25:03.701Z,12.30
2018-07-01T00:27:32.152Z,12.20
2018-07-01T00:30:00.607Z,12.20
2018-07-01T00:32:29.054Z,12.10
2018-07-01T00:37:25.644Z,12.10
2018-07-01T00:39:54.325Z,12.10
2018-07-01T00:42:22.727Z,12.10
2018-07-01T00:44:51.170Z,12.00
2018-07-01T00:47:19.601Z,12.00
2018-07-01T00:49:48.059Z,12.00
2018-07-01T00:52:16.480Z,11.90
2018-07-01T00:54:44.925Z,11.90
2018-07-01T00:57:13.388Z,11.80
2018-07-01T00:59:41.811Z,11.80
2018-07-01T01:02:10.201Z,11.70
2018-07-01T01:04:38.616Z,11.60
2018-07-01T01:07:07.052Z,11.50
2018-07-01T01:09:35.478Z,11.50
2018-07-01T01:12:03.919Z,11.40
2018-07-01T01:14:32.378Z,11.40
2018-07-01T01:17:00.820Z,11.40
2018-07-01T01:19:32.336Z,11.40
2018-07-01T01:22:00.732Z,11.40
2018-07-01T01:24:29.176Z,11.40
2018-07-01T01:26:57.598Z,11.40
2018-07-01T01:29:26.016Z,11.30
2018-07-01T01:31:54.454Z,11.20
2018-07-01T01:34:22.895Z,11.20
2018-07-01T01:36:51.347Z,11.20
2018-07-01T01:39:23.569Z,11.00
2018-07-01T01:41:54.715Z,10.80
2018-07-01T01:44:30.064Z,10.70
2018-07-01T01:47:01.018Z,10.70
2018-07-01T01:49:49.442Z,10.80
2018-07-01T01:52:23.161Z,10.80
2018-07-01T01:54:57.271Z,10.80
2018-07-01T01:57:31.098Z,10.80
2018-07-01T02:00:05.398Z,10.70
2018-07-01T02:02:38.303Z,10.70
2018-07-01T02:05:14.161Z,10.60
2018-07-01T02:07:47.359Z,10.60
2018-07-01T02:10:15.779Z,10.60
2018-07-01T02:12:44.245Z,10.70
2018-07-01T02:15:17.164Z,10.70
2018-07-01T02:17:47.431Z,10.80
2018-07-01T02:20:17.170Z,10.80
2018-07-01T02:22:53.923Z,10.80
2018-07-01T02:25:25.128Z,10.80
2018-07-01T02:27:53.579Z,10.80
2018-07-01T02:30:21.972Z,10.80
2018-07-01T02:32:50.387Z,10.80
2018-07-01T02:35:18.884Z,10.70
2018-07-01T02:37:47.260Z,10.60
2018-07-01T02:40:15.708Z,10.50
2018-07-01T02:42:44.151Z,10.40
2018-07-01T02:45:12.621Z,10.30
2018-07-01T02:47:41.059Z,10.20
2018-07-01T02:50:09.491Z,10.20
2018-07-01T02:52:38.338Z,10.10
2018-07-01T02:55:06.785Z,10.10
2018-07-01T02:57:35.231Z,10.10
2018-07-01T03:00:03.700Z,10.10
2018-07-01T03:02:32.119Z,10.20
2018-07-01T03:05:00.562Z,10.20
2018-07-01T03:07:29.003Z,10.10
2018-07-01T03:09:57.416Z,10.10
2018-07-01T03:12:25.808Z,10.10
2018-07-01T03:14:54.224Z,10.20
2018-07-01T03:17:22.636Z,10.20
2018-07-01T03:19:51.072Z,10.30
2018-07-01T03:22:19.476Z,10.30
2018-07-01T03:24:47.887Z,10.20
2018-07-01T03:27:16.283Z,10.10
2018-07-01T03:29:44.718Z,10.00
2018-07-01T03:32:13.100Z,10.00
2018-07-01T03:34:41.517Z,10.10
2018-07-01T03:37:09.903Z,10.10
2018-07-01T03:39:38.381Z,10.10
2018-07-01T03:42:06.811Z,10.10
2018-07-01T03:44:35.232Z,10.30
2018-07-01T03:47:03.684Z,10.30
2018-07-01T03:49:32.143Z,10.50
2018-07-01T03:52:00.556Z,10.70
2018-07-01T03:54:28.999Z,10.90
2018-07-01T03:56:57.428Z,11.00
2018-07-01T03:59:25.859Z,11.30
2018-07-01T04:01:54.270Z,11.40
2018-07-01T04:04:22.680Z,11.60
2018-07-01T04:06:51.107Z,11.80
2018-07-01T04:09:19.519Z,12.00
2018-07-01T04:11:47.926Z,12.20
2018-07-01T04:14:16.315Z,12.50
2018-07-01T04:16:44.740Z,12.70
2018-07-01T04:19:13.140Z,13.00
2018-07-01T04:21:41.568Z,13.20
2018-07-01T04:24:09.980Z,13.50
2018-07-01T04:26:38.429Z,13.70
2018-07-01T04:29:06.878Z,14.00
2018-07-01T04:31:35.356Z,14.20
2018-07-01T04:34:03.777Z,14.50
2018-07-01T04:36:32.200Z,14.80
2018-07-01T04:39:00.615Z,15.00
2018-07-01T04:41:29.042Z,15.30
2018-07-01T04:43:57.464Z,15.60
2018-07-01T04:46:25.889Z,15.90
2018-07-01T04:48:54.293Z,16.10
2018-07-01T04:51:22.719Z,16.30
2018-07-01T04:53:51.119Z,16.60
2018-07-01T04:56:19.563Z,16.90
2018-07-01T04:58:48.051Z,17.20
2018-07-01T05:01:16.488Z,17.70
2018-07-01T05:03:44.888Z,18.20
2018-07-01T05:06:13.323Z,18.70
2018-07-01T05:08:41.784Z,19.20
2018-07-01T05:11:10.253Z,19.80
2018-07-01T05:13:38.973Z,20.40
2018-07-01T05:16:07.408Z,20.90
2018-07-01T05:18:35.858Z,21.40
2018-07-01T05:21:04.356Z,21.90
2018-07-01T05:23:32.831Z,22.30
2018-07-01T05:26:01.272Z,22.90
2018-07-01T05:28:29.723Z,23.60
2018-07-01T05:30:58.171Z,24.10
2018-07-01T05:33:26.627Z,24.80
2018-07-01T05:35:55.055Z,25.70
2018-07-01T05:38:23.504Z,26.50
2018-07-01T05:40:51.932Z,26.80
2018-07-01T05:43:20.375Z,26.90
2018-07-01T05:45:48.914Z,26.80
2018-07-01T05:48:17.373Z,27.30
2018-07-01T05:50:45.790Z,27.50
2018-07-01T05:53:14.280Z,27.50
2018-07-01T05:55:42.711Z,27.50
2018-07-01T05:58:11.157Z,27.20
2018-07-01T06:00:39.639Z,27.10
2018-07-01T06:03:08.140Z,26.90
2018-07-01T06:05:36.612Z,26.30
2018-07-01T06:08:05.099Z,26.00
2018-07-01T06:10:33.544Z,26.10
2018-07-01T06:13:01.974Z,26.20
2018-07-01T06:15:30.420Z,26.60
2018-07-01T06:17:58.870Z,26.80
2018-07-01T06:20:27.328Z,26.70
2018-07-01T06:22:55.750Z,26.00
2018-07-01T06:25:24.223Z,25.40
2018-07-01T06:27:52.645Z,25.50
2018-07-01T06:30:21.083Z,25.60
2018-07-01T06:32:49.566Z,26.00
2018-07-01T06:35:17.972Z,25.70
2018-07-01T06:37:46.399Z,25.20
2018-07-01T06:40:14.849Z,25.10
2018-07-01T06:42:43.255Z,24.80
2018-07-01T06:45:11.713Z,24.60
2018-07-01T06:47:40.131Z,24.50
2018-07-01T06:50:08.572Z,24.20
2018-07-01T06:52:37.033Z,23.90
2018-07-01T06:55:05.508Z,24.00
2018-07-01T06:57:34.006Z,24.30
2018-07-01T07:00:02.451Z,24.60
2018-07-01T07:02:30.890Z,25.10
2018-07-01T07:04:59.337Z,25.50
2018-07-01T07:07:27.805Z,25.60
2018-07-01T07:09:56.240Z,25.70
2018-07-01T07:12:24.664Z,25.40
2018-07-01T07:14:53.114Z,24.90
2018-07-01T07:17:21.528Z,25.00
2018-07-01T07:19:50.008Z,25.00
2018-07-01T07:22:18.451Z,25.00
2018-07-01T07:24:47.232Z,24.60
2018-07-01T07:27:16.656Z,24.00
2018-07-01T07:29:45.114Z,23.90
2018-07-01T07:32:13.566Z,24.00
2018-07-01T07:34:42.178Z,24.50
2018-07-01T07:37:10.604Z,25.20
2018-07-01T07:39:39.061Z,25.60
2018-07-01T07:42:07.499Z,25.30
2018-07-01T07:44:35.929Z,25.00
2018-07-01T07:47:04.385Z,24.30
2018-07-01T07:49:32.836Z,24.00
2018-07-01T07:52:01.275Z,24.40
2018-07-01T07:54:29.699Z,24.70
2018-07-01T07:56:58.183Z,24.40
2018-07-01T07:59:26.611Z,23.50
2018-07-01T08:01:55.082Z,23.30
2018-07-01T08:04:23.520Z,23.50
2018-07-01T08:06:51.964Z,23.40
2018-07-01T08:09:20.397Z,23.40
2018-07-01T08:11:48.841Z,23.10
2018-07-01T08:14:17.238Z,23.20
2018-07-01T08:16:45.724Z,23.80
2018-07-01T08:19:14.174Z,24.20
2018-07-01T08:21:42.598Z,24.40
2018-07-01T08:24:11.008Z,24.90
2018-07-01T08:26:39.495Z,24.90
2018-07-01T08:29:07.972Z,25.00
2018-07-01T08:31:36.365Z,25.20
2018-07-01T08:34:04.880Z,25.20
2018-07-01T08:36:33.280Z,25.00
2018-07-01T08:39:01.740Z,25.20
2018-07-01T08:41:35.860Z,25.60
2018-07-01T08:44:04.320Z,25.70
2018-07-01T08:46:32.732Z,25.60
2018-07-01T08:49:01.153Z,25.20
2018-07-01T08:51:29.544Z,24.90
2018-07-01T08:53:57.967Z,24.50
2018-07-01T08:56:26.372Z,24.70
2018-07-01T08:58:54.787Z,25.00
2018-07-01T09:01:23.219Z,25.50
2018-07-01T09:03:51.634Z,25.90
2018-07-01T09:06:20.051Z,26.20
2018-07-01T09:08:48.564Z,26.10
2018-07-01T09:11:16.916Z,26.30
2018-07-01T09:13:45.341Z,26.40
2018-07-01T09:16:13.746Z,26.50
2018-07-01T09:18:42.177Z,26.70
2018-07-01T09:21:10.583Z,26.90
2018-07-01T09:23:39.019Z,26.50
2018-07-01T09:26:07.419Z,26.60
2018-07-01T09:28:35.852Z,26.70
2018-07-01T09:31:04.292Z,26.80
2018-07-01T09:33:32.728Z,27.10
2018-07-01T09:36:01.143Z,27.00
2018-07-01T09:38:29.552Z,27.20
2018-07-01T09:40:57.971Z,27.10
2018-07-01T09:43:26.409Z,27.40
2018-07-01T09:45:54.795Z,26.80
2018-07-01T09:48:23.208Z,26.90
2018-07-01T09:50:51.644Z,27.00
2018-07-01T09:53:20.040Z,26.80
2018-07-01T09:55:48.484Z,27.00
2018-07-01T09:58:16.905Z,26.60
2018-07-01T10:00:45.368Z,26.70
2018-07-01T10:03:13.780Z,26.20
2018-07-01T10:05:42.228Z,26.70
2018-07-01T10:08:10.696Z,26.90
2018-07-01T10:10:39.153Z,27.20
2018-07-01T10:13:07.592Z,27.30
2018-07-01T10:15:36.030Z,27.10
2018-07-01T10:18:05.112Z,27.20
2018-07-01T10:20:33.559Z,26.80
2018-07-01T10:23:01.968Z,26.00
2018-07-01T10:25:30.400Z,25.90
2018-07-01T10:27:58.835Z,26.30
2018-07-01T10:30:27.259Z,26.60
2018-07-01T10:32:55.697Z,27.10
2018-07-01T10:35:24.127Z,27.90
2018-07-01T10:37:52.565Z,28.30
2018-07-01T10:40:20.988Z,28.50
2018-07-01T10:42:49.564Z,28.40
2018-07-01T10:45:18.010Z,28.20
2018-07-01T10:47:46.615Z,27.70
2018-07-01T10:50:15.048Z,27.10
2018-07-01T10:55:11.631Z,27.00
2018-07-01T10:57:40.102Z,27.50
2018-07-01T11:00:08.583Z,27.40
2018-07-01T11:02:37.016Z,27.10
2018-07-01T11:05:05.503Z,27.20
2018-07-01T11:07:34.055Z,27.60
2018-07-01T11:10:02.460Z,27.60
2018-07-01T11:12:30.902Z,27.70
2018-07-01T11:14:59.336Z,27.50
2018-07-01T11:17:27.800Z,27.70
2018-07-01T11:19:56.216Z,27.40
2018-07-01T11:22:24.671Z,27.60
2018-07-01T11:24:53.134Z,27.60
2018-07-01T11:27:21.619Z,27.50
2018-07-01T11:29:50.037Z,27.30
2018-07-01T11:32:18.471Z,27.70
2018-07-01T11:37:15.066Z,27.70
2018-07-01T11:39:43.500Z,27.40
2018-07-01T11:42:11.956Z,27.20
2018-07-01T11:44:40.475Z,27.40
2018-07-01T11:47:08.938Z,27.30
2018-07-01T11:49:37.474Z,27.20
2018-07-01T11:52:06.177Z,26.70
2018-07-01T11:54:34.620Z,26.30
2018-07-01T11:57:03.049Z,26.00
2018-07-01T11:59:31.493Z,26.20
2018-07-01T12:01:59.943Z,26.30
2018-07-01T12:04:28.370Z,26.30
2018-07-01T12:06:56.783Z,26.80
2018-07-01T12:09:25.248Z,27.30
2018-07-01T12:11:53.687Z,27.70
2018-07-01T12:14:22.131Z,28.00
2018-07-01T12:16:50.567Z,27.90
2018-07-01T12:19:20.170Z,27.50
2018-07-01T12:21:48.591Z,27.50
2018-07-01T12:24:17.039Z,27.70
2018-07-01T12:26:45.460Z,27.80
2018-07-01T12:29:13.899Z,27.40
2018-07-01T12:31:42.313Z,27.60
2018-07-01T12:34:10.751Z,28.00
2018-07-01T12:36:39.208Z,27.70
2018-07-01T12:39:10.292Z,27.90
2018-07-01T12:41:38.779Z,27.90
2018-07-01T12:44:07.276Z,27.90
2018-07-01T12:46:35.728Z,28.20
2018-07-01T12:49:04.208Z,27.70
2018-07-01T12:51:32.692Z,27.60
2018-07-01T12:54:01.155Z,27.70
2018-07-01T12:56:29.641Z,28.00
2018-07-01T12:58:58.068Z,27.90
2018-07-01T13:01:26.497Z,27.90
2018-07-01T13:03:54.916Z,27.60
2018-07-01T13:06:23.348Z,27.50
2018-07-01T13:08:51.888Z,27.30
2018-07-01T13:13:48.736Z,27.40
2018-07-01T13:16:17.299Z,27.50
2018-07-01T13:18:45.769Z,27.50
2018-07-01T13:21:14.233Z,27.00
2018-07-01T13:23:42.651Z,26.80
2018-07-01T13:26:11.105Z,27.00
2018-07-01T13:28:39.531Z,27.30
2018-07-01T13:31:07.997Z,27.60
2018-07-01T13:33:36.437Z,27.30
2018-07-01T13:36:04.907Z,27.20
2018-07-01T13:38:35.736Z,27.40
2018-07-01T13:41:05.297Z,27.60
2018-07-01T13:43:33.756Z,27.50
2018-07-01T13:46:02.735Z,27.30
2018-07-01T13:48:31.914Z,27.10
2018-07-01T13:51:00.531Z,27.10
2018-07-01T13:53:29.087Z,27.30
2018-07-01T13:55:57.633Z,27.50
2018-07-01T13:58:26.255Z,27.70
2018-07-01T14:00:54.725Z,27.70
2018-07-01T14:03:23.352Z,27.70
2018-07-01T14:05:51.812Z,27.70
2018-07-01T14:08:20.302Z,27.80
2018-07-01T14:10:48.712Z,27.40
2018-07-01T14:13:17.173Z,27.40
2018-07-01T14:15:45.592Z,27.50
2018-07-01T14:18:14.059Z,27.30
2018-07-01T14:20:42.479Z,27.30
2018-07-01T14:23:10.932Z,27.20
2018-07-01T14:25:39.594Z,27.20
2018-07-01T14:28:08.055Z,27.00
2018-07-01T14:30:36.463Z,26.50
2018-07-01T14:35:33.510Z,26.30
2018-07-01T14:38:01.937Z,26.50
2018-07-01T14:40:30.352Z,26.80
2018-07-01T14:42:58.788Z,26.90
2018-07-01T14:45:27.212Z,26.80
2018-07-01T14:47:55.671Z,26.80
2018-07-01T14:50:24.099Z,26.80
2018-07-01T14:52:52.541Z,26.90
2018-07-01T14:55:20.986Z,27.10
2018-07-01T14:57:49.452Z,27.20
2018-07-01T15:00:17.885Z,27.00
2018-07-01T15:02:46.304Z,26.90
2018-07-01T15:05:14.776Z,26.80
2018-07-01T15:07:43.218Z,26.80
2018-07-01T15:10:11.649Z,26.70
2018-07-01T15:12:40.060Z,26.70
2018-07-01T15:15:08.577Z,26.80
2018-07-01T15:17:37.015Z,26.60
2018-07-01T15:20:05.524Z,26.50
2018-07-01T15:22:33.991Z,26.50
2018-07-01T15:25:02.409Z,26.50
2018-07-01T15:27:30.804Z,26.60
2018-07-01T15:29:59.229Z,26.60
2018-07-01T15:32:27.676Z,26.50
2018-07-01T15:34:56.141Z,26.00
2018-07-01T15:37:24.592Z,25.50
2018-07-01T15:39:53.067Z,25.40
2018-07-01T15:42:21.463Z,25.60
2018-07-01T15:44:49.888Z,25.60
2018-07-01T15:47:18.300Z,25.60
2018-07-01T15:49:46.724Z,25.50
2018-07-01T15:52:15.119Z,25.50
2018-07-01T15:54:43.898Z,25.60
2018-07-01T15:57:12.324Z,25.50
2018-07-01T15:59:40.754Z,25.40
2018-07-01T16:02:09.245Z,25.10
2018-07-01T16:04:37.682Z,25.10
2018-07-01T16:07:06.129Z,25.10
2018-07-01T16:09:34.554Z,25.10
2018-07-01T16:12:03.000Z,25.10
2018-07-01T16:14:31.467Z,25.10
2018-07-01T16:16:59.891Z,25.10
2018-07-01T16:19:28.316Z,24.90
2018-07-01T16:21:56.788Z,24.80
2018-07-01T16:24:25.253Z,24.80
2018-07-01T16:26:55.336Z,24.60
2018-07-01T16:29:23.759Z,24.60
2018-07-01T16:31:52.191Z,24.50
2018-07-01T16:34:20.608Z,24.60
2018-07-01T16:36:49.052Z,24.40
2018-07-01T16:39:17.480Z,24.40
2018-07-01T16:41:45.920Z,24.50
2018-07-01T16:44:14.335Z,24.50
2018-07-01T16:46:42.804Z,24.40
2018-07-01T16:49:12.248Z,24.30
2018-07-01T16:51:41.086Z,24.30
2018-07-01T16:54:09.531Z,24.30
2018-07-01T16:56:38.000Z,24.20
2018-07-01T16:59:06.456Z,24.10
2018-07-01T17:01:34.931Z,24.00
2018-07-01T17:04:03.400Z,23.90
2018-07-01T17:06:31.876Z,23.90
2018-07-01T17:09:00.344Z,23.70
2018-07-01T17:11:28.800Z,23.60
2018-07-01T17:13:57.252Z,23.60
2018-07-01T17:16:25.699Z,23.50
2018-07-01T17:18:54.117Z,23.50
2018-07-01T17:21:22.525Z,23.40
2018-07-01T17:23:50.921Z,23.30
2018-07-01T17:26:19.384Z,23.20
2018-07-01T17:28:47.793Z,23.20
2018-07-01T17:31:21.583Z,23.10
2018-07-01T17:33:49.969Z,23.10
2018-07-01T17:36:18.393Z,23.00
2018-07-01T17:38:46.801Z,23.00
2018-07-01T17:41:15.244Z,22.90
2018-07-01T17:43:43.659Z,22.90
2018-07-01T17:46:12.073Z,22.80
2018-07-01T17:48:40.524Z,22.70
2018-07-01T17:51:08.928Z,22.60
2018-07-01T17:53:48.768Z,22.60
2018-07-01T17:56:17.180Z,22.60
2018-07-01T17:58:45.859Z,22.50
2018-07-01T18:01:14.549Z,22.40
2018-07-01T18:03:42.962Z,22.40
2018-07-01T18:06:11.365Z,22.30
2018-07-01T18:08:39.834Z,22.20
2018-07-01T18:11:08.302Z,22.10
2018-07-01T18:13:36.977Z,22.00
2018-07-01T18:16:05.635Z,21.90
2018-07-01T18:18:34.104Z,21.70
2018-07-01T18:21:02.593Z,21.60
2018-07-01T18:24:02.952Z,21.50
2018-07-01T18:25:59.766Z,21.40
2018-07-01T18:28:37.869Z,21.40
2018-07-01T18:30:56.775Z,21.30
2018-07-01T18:33:25.431Z,21.30
2018-07-01T18:35:53.995Z,21.20
2018-07-01T18:38:22.419Z,21.10
2018-07-01T18:40:51.427Z,21.00
2018-07-01T18:43:19.366Z,20.90
2018-07-01T18:45:47.826Z,20.80
2018-07-01T18:48:16.286Z,20.70
2018-07-01T18:50:44.760Z,20.60
2018-07-01T18:53:13.226Z,20.50
2018-07-01T18:55:41.674Z,20.40
2018-07-01T18:58:10.112Z,20.30
2018-07-01T19:00:38.564Z,20.10
2018-07-01T19:03:06.988Z,20.00
2018-07-01T19:05:35.460Z,19.90
2018-07-01T19:08:03.924Z,19.80
2018-07-01T19:10:32.347Z,19.80
2018-07-01T19:13:00.755Z,19.60
2018-07-01T19:15:29.215Z,19.60
2018-07-01T19:17:57.617Z,19.50
2018-07-01T19:20:26.039Z,19.30
2018-07-01T19:22:54.521Z,19.30
2018-07-01T19:25:22.960Z,19.20
2018-07-01T19:27:51.359Z,19.00
2018-07-01T19:30:19.768Z,18.90
2018-07-01T19:32:48.175Z,18.90
2018-07-01T19:35:16.656Z,18.80
2018-07-01T19:37:45.079Z,18.70
2018-07-01T19:40:13.480Z,18.60
2018-07-01T19:42:42.078Z,18.50
2018-07-01T19:45:10.341Z,18.40
2018-07-01T19:47:38.759Z,18.30
2018-07-01T19:50:07.182Z,18.20
2018-07-01T19:52:35.680Z,18.10
2018-07-01T19:55:04.241Z,18.10
2018-07-01T19:57:32.665Z,18.10
2018-07-01T20:00:01.156Z,17.90
2018-07-01T20:02:29.568Z,17.80
2018-07-01T20:04:57.976Z,17.70
2018-07-01T20:07:26.403Z,17.50
2018-07-01T20:09:54.804Z,17.50
2018-07-01T20:12:23.229Z,17.40
2018-07-01T20:14:51.636Z,17.30
2018-07-01T20:17:20.051Z,17.30
2018-07-01T20:19:48.708Z,17.30
2018-07-01T20:22:17.416Z,17.30
2018-07-01T20:24:45.811Z,17.20
2018-07-01T20:27:14.238Z,17.20
2018-07-01T20:29:42.675Z,17.20
2018-07-01T20:32:11.093Z,17.10
2018-07-01T20:34:39.500Z,17.00
2018-07-01T20:37:07.920Z,16.90
2018-07-01T20:39:36.323Z,16.70
2018-07-01T20:42:04.795Z,16.80
2018-07-01T20:44:33.197Z,16.70
2018-07-01T20:47:01.665Z,16.70
2018-07-01T20:49:30.072Z,16.70
2018-07-01T20:51:58.487Z,16.70
2018-07-01T20:54:26.891Z,16.70
2018-07-01T20:56:55.335Z,16.60
2018-07-01T20:59:23.759Z,16.60
2018-07-01T21:01:52.163Z,16.50
2018-07-01T21:04:20.592Z,16.50
2018-07-01T21:06:48.996Z,16.40
2018-07-01T21:09:17.548Z,16.40
2018-07-01T21:11:46.001Z,16.30
2018-07-01T21:14:14.443Z,16.30
2018-07-01T21:16:42.872Z,16.30
2018-07-01T21:19:11.318Z,16.30
2018-07-01T21:21:39.774Z,16.20
2018-07-01T21:24:08.223Z,16.20
2018-07-01T21:26:36.697Z,16.00
2018-07-01T21:29:05.221Z,16.00
2018-07-01T21:31:33.648Z,16.00
2018-07-01T21:34:02.087Z,15.90
2018-07-01T21:36:30.536Z,15.90
2018-07-01T21:38:59.000Z,15.80
2018-07-01T21:41:27.448Z,15.70
2018-07-01T21:43:55.899Z,15.70
2018-07-01T21:46:24.344Z,15.70
2018-07-01T21:48:52.803Z,15.60
2018-07-01T21:51:21.236Z,15.60
2018-07-01T21:53:49.720Z,15.60
2018-07-01T21:56:18.180Z,15.50
2018-07-01T21:58:46.632Z,15.40
2018-07-01T22:01:15.083Z,15.40
2018-07-01T22:03:43.540Z,15.40
2018-07-01T22:06:11.972Z,15.40
2018-07-01T22:08:40.444Z,15.40
2018-07-01T22:12:22.817Z,15.30
2018-07-01T22:15:02.587Z,15.20
2018-07-01T22:17:30.998Z,15.10
2018-07-01T22:19:59.443Z,15.00
2018-07-01T22:22:27.889Z,14.90
2018-07-01T22:24:56.331Z,14.70
2018-07-01T22:27:24.746Z,14.60
2018-07-01T22:29:53.187Z,14.60
2018-07-01T22:32:21.612Z,14.50
2018-07-01T22:34:50.063Z,14.50
2018-07-01T22:37:18.491Z,14.40
2018-07-01T22:39:46.968Z,14.30
2018-07-01T22:42:15.425Z,14.30
2018-07-01T22:44:43.852Z,14.20
2018-07-01T22:47:12.419Z,14.10
2018-07-01T22:49:40.849Z,14.00
2018-07-01T22:52:09.291Z,13.90
2018-07-01T22:54:37.713Z,13.80
2018-07-01T22:57:06.174Z,13.80
2018-07-01T22:59:34.601Z,13.80
2018-07-01T23:03:13.463Z,13.70
2018-07-01T23:05:41.961Z,13.60
2018-07-01T23:08:10.407Z,13.50
2018-07-01T23:10:38.878Z,13.50
2018-07-01T23:13:07.327Z,13.50
2018-07-01T23:15:35.761Z,13.40
2018-07-01T23:18:04.335Z,13.40
2018-07-01T23:23:00.909Z,13.40
2018-07-01T23:25:29.326Z,13.40
2018-07-01T23:27:57.791Z,13.40
2018-07-01T23:30:26.226Z,13.40
2018-07-01T23:32:54.710Z,13.50
2018-07-01T23:35:23.090Z,13.50
2018-07-01T23:37:51.528Z,13.50
2018-07-01T23:40:19.988Z,13.50
2018-07-01T23:42:48.444Z,13.50
2018-07-01T23:45:16.939Z,13.50
2018-07-01T23:47:46.203Z,13.40
2018-07-01T23:50:14.655Z,13.40
2018-07-01T23:52:43.132Z,13.30
2018-07-01T23:55:11.592Z,13.20
2018-07-01T23:57:40.048Z,13.20
